Time;durP1;ratioP1;P1;durP2;ratioP2;P2;SDS_P1;SDS_P2;PMS_P1;PMS_P2;Temp;Humidity;BMP_temperature;BMP_pressure;BME280_temperature;BME280_humidity;BME280_pressure;Samples;Min_cycle;Max_cycle;Signal;HPM_P1;HPM_P2
2023/12/29 00:01:48;;;;;;;9.30;2.00;;;9.70;99.90;;;;;;5012947;28;20046;-84
2023/12/29 00:04:14;;;;;;;11.90;2.58;;;9.80;99.90;;;;;;5013180;28;20132;-84
2023/12/29 00:06:40;;;;;;;10.57;2.38;;;9.70;99.90;;;;;;5012549;28;20037;-84
2023/12/29 00:09:07;;;;;;;13.10;2.03;;;9.80;99.90;;;;;;5013300;28;20061;-82
2023/12/29 00:11:33;;;;;;;13.50;2.35;;;9.80;99.90;;;;;;5012931;28;20129;-84
2023/12/29 00:13:58;;;;;;;9.00;1.88;;;9.80;99.90;;;;;;4998051;28;20447;-83
2023/12/29 00:16:24;;;;;;;11.68;2.08;;;9.80;99.90;;;;;;5008842;28;20053;-83
2023/12/29 00:18:50;;;;;;;13.65;2.60;;;9.80;99.90;;;;;;5013319;28;20061;-83
2023/12/29 00:21:16;;;;;;;12.25;2.38;;;9.80;99.90;;;;;;5015689;28;20104;-82
2023/12/29 00:23:41;;;;;;;11.25;2.28;;;9.80;99.90;;;;;;5012405;28;20049;-83
2023/12/29 00:26:07;;;;;;;9.13;2.10;;;9.80;99.90;;;;;;4998402;28;20045;-81
2023/12/29 00:28:35;;;;;;;10.90;1.98;;;10.00;99.90;;;;;;5012275;28;20046;-83
2023/12/29 00:31:01;;;;;;;13.90;1.67;;;9.80;99.90;;;;;;5012583;28;20148;-83
2023/12/29 00:33:26;;;;;;;9.88;1.95;;;9.90;99.90;;;;;;5011943;28;20701;-84
2023/12/29 00:35:52;;;;;;;9.10;1.90;;;9.80;99.90;;;;;;5012160;28;20498;-83
2023/12/29 00:38:18;;;;;;;13.85;2.15;;;9.80;99.90;;;;;;5011712;28;20401;-83
2023/12/29 00:40:43;;;;;;;11.35;2.22;;;9.80;99.90;;;;;;5011995;28;20068;-84
2023/12/29 00:43:09;;;;;;;12.95;2.25;;;9.80;99.90;;;;;;5009415;28;20057;-82
2023/12/29 00:45:36;;;;;;;13.68;2.20;;;9.80;99.90;;;;;;5012047;28;20038;-84
2023/12/29 00:48:02;;;;;;;12.77;1.77;;;9.80;99.90;;;;;;5011564;28;20054;-82
2023/12/29 00:50:28;;;;;;;8.95;1.83;;;9.80;99.90;;;;;;5011529;28;20046;-82
2023/12/29 00:52:54;;;;;;;8.70;2.10;;;9.80;99.90;;;;;;4994945;28;20104;-82
2023/12/29 00:55:20;;;;;;;10.07;2.20;;;9.80;99.90;;;;;;5011892;28;20077;-82
2023/12/29 00:57:45;;;;;;;11.60;2.25;;;9.80;99.90;;;;;;5011812;28;20050;-82
2023/12/29 01:00:12;;;;;;;11.95;2.17;;;9.80;99.90;;;;;;5010783;28;20056;-83
2023/12/29 01:02:38;;;;;;;16.77;2.65;;;9.80;99.90;;;;;;5009516;28;20037;-83
2023/12/29 01:05:05;;;;;;;16.17;2.83;;;9.70;99.90;;;;;;5012038;28;20056;-83
2023/12/29 01:07:31;;;;;;;16.75;2.53;;;9.70;99.90;;;;;;4995303;28;20050;-83
2023/12/29 01:09:57;;;;;;;14.93;2.60;;;9.70;99.90;;;;;;5011774;28;20096;-84
2023/12/29 01:12:22;;;;;;;9.15;2.17;;;9.60;99.90;;;;;;5010821;28;20116;-84
2023/12/29 01:14:48;;;;;;;10.15;2.05;;;9.60;99.90;;;;;;5011233;28;20611;-81
2023/12/29 01:17:14;;;;;;;11.85;2.67;;;9.50;99.90;;;;;;5008985;28;20041;-83
2023/12/29 01:19:39;;;;;;;16.65;2.78;;;9.50;99.90;;;;;;5007085;28;20057;-83
2023/12/29 01:22:05;;;;;;;13.60;2.90;;;9.50;99.90;;;;;;5011721;28;20088;-83
2023/12/29 01:24:31;;;;;;;19.25;3.13;;;9.50;99.90;;;;;;5011702;28;20046;-82
2023/12/29 01:26:56;;;;;;;11.07;2.58;;;9.40;99.90;;;;;;5012359;28;20381;-83
2023/12/29 01:29:22;;;;;;;15.80;3.38;;;9.40;99.90;;;;;;5005301;28;20057;-83
2023/12/29 01:31:48;;;;;;;14.77;3.00;;;9.40;99.90;;;;;;4998616;28;20057;-81
2023/12/29 01:34:13;;;;;;;17.27;3.38;;;9.40;99.90;;;;;;5012172;28;20057;-83
2023/12/29 01:36:39;;;;;;;15.43;3.55;;;9.40;99.90;;;;;;5010579;28;20044;-83
2023/12/29 01:39:05;;;;;;;13.20;2.55;;;9.40;99.90;;;;;;5010649;28;20050;-83
2023/12/29 01:41:31;;;;;;;13.95;2.92;;;9.50;99.90;;;;;;5010888;28;20537;-83
2023/12/29 01:43:56;;;;;;;10.70;2.33;;;9.60;99.90;;;;;;5010724;28;20048;-83
2023/12/29 01:46:24;;;;;;;13.07;1.90;;;9.40;99.90;;;;;;5011171;28;20108;-82
2023/12/29 01:48:50;;;;;;;6.45;1.65;;;9.40;99.90;;;;;;5011758;28;20130;-83
2023/12/29 01:51:19;;;;;;;7.03;1.38;;;9.30;99.90;;;;;;5003254;28;20117;-84
2023/12/29 01:53:45;;;;;;;5.57;1.15;;;9.20;99.90;;;;;;5010639;28;20056;-84
2023/12/29 01:56:11;;;;;;;9.38;1.73;;;9.10;99.90;;;;;;5011254;28;20054;-83
2023/12/29 01:58:37;;;;;;;15.45;2.72;;;9.00;99.90;;;;;;5001971;28;20115;-82
2023/12/29 02:01:04;;;;;;;14.63;3.78;;;9.00;99.90;;;;;;5011863;28;20096;-83
2023/12/29 02:03:30;;;;;;;18.80;3.13;;;9.00;99.90;;;;;;4995282;28;20046;-82
2023/12/29 02:05:58;;;;;;;10.80;2.85;;;9.00;99.90;;;;;;4995052;28;20054;-82
2023/12/29 02:08:24;;;;;;;7.00;1.35;;;9.00;99.90;;;;;;5011474;28;20061;-84
2023/12/29 02:10:50;;;;;;;7.00;1.00;;;8.90;99.90;;;;;;5011003;28;20104;-84
2023/12/29 02:13:15;;;;;;;10.02;0.90;;;8.70;99.90;;;;;;4995866;28;20042;-84
2023/12/29 02:15:41;;;;;;;6.18;1.35;;;8.50;99.90;;;;;;4979566;28;20089;-84
2023/12/29 02:18:14;;;;;;;8.18;1.33;;;8.10;99.90;;;;;;5007459;28;20042;-83
2023/12/29 02:20:42;;;;;;;7.97;1.10;;;8.10;99.90;;;;;;5006910;28;20487;-83
2023/12/29 02:23:09;;;;;;;11.10;1.70;;;7.40;99.90;;;;;;4988713;28;20574;-85
2023/12/29 02:25:34;;;;;;;14.13;1.98;;;7.20;99.90;;;;;;5009732;28;21347;-82
2023/12/29 02:28:19;;;;;;;11.13;1.10;;;7.10;99.90;;;;;;5013835;28;20046;-84
2023/12/29 02:31:01;;;;;;;10.32;1.23;;;6.90;99.90;;;;;;5010948;28;20057;-83
2023/12/29 02:33:27;;;;;;;14.00;1.70;;;6.90;99.90;;;;;;5009040;28;20092;-84
2023/12/29 02:35:59;;;;;;;10.65;1.63;;;6.90;99.90;;;;;;5009688;28;20096;-83
2023/12/29 02:38:27;;;;;;;12.40;2.22;;;6.90;99.90;;;;;;4998084;28;20513;-82
2023/12/29 02:40:56;;;;;;;15.23;1.77;;;7.00;99.90;;;;;;5004904;28;20057;-83
2023/12/29 02:43:23;;;;;;;14.25;2.35;;;7.10;99.90;;;;;;4994124;28;20140;-83
2023/12/29 02:45:48;;;;;;;16.90;1.55;;;7.10;99.90;;;;;;4992371;28;20042;-82
2023/12/29 02:48:14;;;;;;;11.23;2.40;;;7.20;99.90;;;;;;4997478;28;20046;-84
2023/12/29 02:50:40;;;;;;;10.23;1.70;;;7.30;99.90;;;;;;5009369;28;20083;-82
2023/12/29 02:53:05;;;;;;;13.77;2.25;;;7.40;99.90;;;;;;5011161;28;20440;-81
2023/12/29 02:55:32;;;;;;;13.50;2.60;;;7.50;99.90;;;;;;5005726;28;20057;-82
2023/12/29 02:58:01;;;;;;;13.77;3.25;;;7.50;99.90;;;;;;5011403;28;20050;-82
2023/12/29 03:00:27;;;;;;;23.17;4.70;;;7.60;99.90;;;;;;5010305;28;20111;-82
2023/12/29 03:02:52;;;;;;;23.58;4.03;;;7.70;99.90;;;;;;5010181;28;20090;-83
2023/12/29 03:05:18;;;;;;;15.43;4.03;;;7.80;99.90;;;;;;5011745;28;20502;-81
2023/12/29 03:07:43;;;;;;;23.13;4.55;;;8.00;99.90;;;;;;5013657;28;20050;-84
2023/12/29 03:10:09;;;;;;;21.73;3.83;;;8.20;99.90;;;;;;5013708;28;20034;-83
2023/12/29 03:12:35;;;;;;;24.08;3.50;;;8.20;99.90;;;;;;5013651;28;20041;-84
2023/12/29 03:15:01;;;;;;;20.80;3.70;;;8.30;99.90;;;;;;5011849;28;20045;-83
2023/12/29 03:17:26;;;;;;;22.58;3.92;;;8.40;99.90;;;;;;5010371;28;20049;-82
2023/12/29 03:19:53;;;;;;;16.35;3.05;;;8.50;99.90;;;;;;4978789;28;20226;-84
2023/12/29 03:22:18;;;;;;;20.02;3.92;;;8.60;99.90;;;;;;5005035;28;20050;-83
2023/12/29 03:24:44;;;;;;;21.15;3.60;;;8.70;99.90;;;;;;5014103;28;20053;-84
2023/12/29 03:27:10;;;;;;;16.17;3.50;;;8.70;99.90;;;;;;5013938;28;20045;-84
2023/12/29 03:29:36;;;;;;;13.80;2.95;;;8.80;99.90;;;;;;5012543;28;20386;-83
2023/12/29 03:32:03;;;;;;;18.85;4.63;;;8.90;99.90;;;;;;5011946;28;20097;-84
2023/12/29 03:34:28;;;;;;;18.65;3.78;;;8.90;99.90;;;;;;4997522;28;20046;-82
2023/12/29 03:36:54;;;;;;;18.25;3.97;;;9.00;99.90;;;;;;5013735;28;20103;-83
2023/12/29 03:39:20;;;;;;;21.17;4.13;;;8.90;99.90;;;;;;5013327;28;20172;-83
2023/12/29 03:41:46;;;;;;;19.40;3.30;;;9.00;99.90;;;;;;4996979;28;20053;-82
2023/12/29 03:44:12;;;;;;;21.45;3.70;;;9.00;99.90;;;;;;5005445;28;20042;-83
2023/12/29 03:46:39;;;;;;;19.67;3.75;;;9.00;99.90;;;;;;4996778;28;20049;-82
2023/12/29 03:49:04;;;;;;;18.92;3.55;;;9.00;99.90;;;;;;4993869;28;20086;-83
2023/12/29 03:51:30;;;;;;;16.35;2.90;;;9.00;99.90;;;;;;4994039;28;20081;-83
2023/12/29 03:53:58;;;;;;;21.50;3.15;;;9.00;99.90;;;;;;5003526;28;20038;-82
2023/12/29 03:56:24;;;;;;;15.93;3.90;;;9.00;99.90;;;;;;4997785;28;20056;-82
2023/12/29 03:58:49;;;;;;;19.05;3.63;;;9.30;99.90;;;;;;5012759;28;20050;-83
2023/12/29 04:01:17;;;;;;;20.23;3.92;;;9.20;99.90;;;;;;5013698;28;20058;-82
2023/12/29 04:03:44;;;;;;;20.35;2.85;;;9.00;99.90;;;;;;5016195;28;20057;-81
2023/12/29 04:06:10;;;;;;;22.15;4.18;;;9.00;99.90;;;;;;5013327;28;20167;-82
2023/12/29 04:08:37;;;;;;;20.08;3.55;;;9.00;99.90;;;;;;5013226;28;20085;-85
2023/12/29 04:11:03;;;;;;;18.35;3.38;;;9.00;99.90;;;;;;5013282;28;20056;-82
2023/12/29 04:13:29;;;;;;;25.77;4.82;;;8.90;99.90;;;;;;4996891;28;20049;-82
2023/12/29 04:15:55;;;;;;;17.63;3.40;;;8.90;99.90;;;;;;5001843;28;20050;-83
2023/12/29 04:18:22;;;;;;;22.25;3.47;;;9.00;99.90;;;;;;5001649;28;20149;-82
2023/12/29 04:20:48;;;;;;;17.38;3.83;;;9.00;99.90;;;;;;5004164;28;20049;-81
2023/12/29 04:23:14;;;;;;;21.27;3.33;;;9.00;99.90;;;;;;5016948;28;20050;-82
2023/12/29 04:25:40;;;;;;;19.45;3.55;;;9.00;99.90;;;;;;5013272;28;20050;-82
2023/12/29 04:28:07;;;;;;;20.40;3.42;;;8.90;99.90;;;;;;5013769;28;20042;-81
2023/12/29 04:30:33;;;;;;;20.88;3.78;;;9.00;99.90;;;;;;5013900;28;20382;-82
2023/12/29 04:32:58;;;;;;;27.58;3.65;;;8.90;99.90;;;;;;5013710;28;20046;-82
2023/12/29 04:35:24;;;;;;;19.13;3.33;;;9.00;99.90;;;;;;4997452;28;20041;-82
2023/12/29 04:37:50;;;;;;;16.45;3.78;;;8.90;99.90;;;;;;5001115;28;20052;-82
2023/12/29 04:40:17;;;;;;;18.88;3.63;;;9.00;99.90;;;;;;5003146;28;20051;-82
2023/12/29 04:42:43;;;;;;;23.13;3.67;;;8.90;99.90;;;;;;5007536;28;20049;-82
2023/12/29 04:45:10;;;;;;;19.30;3.10;;;8.90;99.90;;;;;;5011921;28;20046;-82
2023/12/29 04:47:36;;;;;;;22.95;3.75;;;8.90;99.90;;;;;;5012574;28;20050;-81
2023/12/29 04:50:02;;;;;;;18.70;3.95;;;8.90;99.90;;;;;;5012090;28;20053;-80
2023/12/29 04:52:27;;;;;;;24.10;4.20;;;8.90;99.90;;;;;;5007099;28;20053;-82
2023/12/29 04:54:53;;;;;;;27.98;3.75;;;8.90;99.90;;;;;;5010651;28;20073;-82
2023/12/29 04:57:19;;;;;;;23.25;3.70;;;8.90;99.90;;;;;;5011693;28;20054;-81
2023/12/29 04:59:45;;;;;;;22.75;3.38;;;9.00;99.90;;;;;;5012068;28;20049;-82
2023/12/29 05:02:10;;;;;;;21.88;3.88;;;9.10;99.90;;;;;;5000012;28;20042;-80
2023/12/29 05:04:37;;;;;;;19.08;3.75;;;8.90;99.90;;;;;;5003030;28;20181;-82
2023/12/29 05:07:05;;;;;;;19.17;3.35;;;8.90;99.90;;;;;;5003105;28;20760;-82
2023/12/29 05:09:31;;;;;;;26.60;4.65;;;8.90;99.90;;;;;;5011895;28;20045;-83
2023/12/29 05:11:56;;;;;;;19.70;3.17;;;8.90;99.90;;;;;;5011290;28;20050;-83
2023/12/29 05:14:22;;;;;;;23.42;3.58;;;8.90;99.90;;;;;;5011576;28;20040;-82
2023/12/29 05:16:47;;;;;;;22.23;4.05;;;8.90;99.90;;;;;;5011591;28;20570;-82
2023/12/29 05:19:13;;;;;;;24.73;3.97;;;8.90;99.90;;;;;;5005529;28;20494;-82
2023/12/29 05:21:39;;;;;;;25.13;3.90;;;8.90;99.90;;;;;;5010417;28;20577;-82
2023/12/29 05:24:05;;;;;;;25.70;4.47;;;9.00;99.90;;;;;;5018300;28;20068;-82
2023/12/29 05:26:31;;;;;;;18.30;3.55;;;9.00;99.90;;;;;;5011869;28;20046;-83
2023/12/29 05:28:57;;;;;;;22.45;3.33;;;9.00;99.90;;;;;;5010381;28;20041;-83
2023/12/29 05:31:23;;;;;;;26.42;3.92;;;9.00;99.90;;;;;;5008059;28;20699;-82
2023/12/29 05:33:48;;;;;;;23.48;3.28;;;9.00;99.90;;;;;;5010665;28;20413;-82
2023/12/29 05:36:14;;;;;;;26.02;4.20;;;9.00;99.90;;;;;;5010941;28;20469;-82
2023/12/29 05:38:41;;;;;;;24.58;3.13;;;9.10;99.90;;;;;;5011796;28;20038;-83
2023/12/29 05:41:07;;;;;;;22.90;2.92;;;9.10;99.90;;;;;;5011313;28;20042;-82
2023/12/29 05:43:34;;;;;;;15.63;2.90;;;9.10;99.90;;;;;;5009397;28;20045;-81
2023/12/29 05:46:01;;;;;;;21.85;3.15;;;9.50;99.90;;;;;;5004483;28;20066;-82
2023/12/29 05:48:27;;;;;;;24.67;4.07;;;9.10;99.90;;;;;;5011327;28;20049;-82
2023/12/29 05:50:53;;;;;;;19.20;3.50;;;9.10;99.90;;;;;;5010193;28;20050;-82
2023/12/29 05:53:19;;;;;;;19.48;3.35;;;9.20;99.90;;;;;;5012627;28;20045;-83
2023/12/29 05:55:45;;;;;;;18.83;2.72;;;9.10;99.90;;;;;;5011093;28;20132;-83
2023/12/29 05:58:11;;;;;;;20.58;3.17;;;9.10;99.90;;;;;;5010867;28;20099;-82
2023/12/29 06:00:39;;;;;;;18.15;2.78;;;9.20;99.90;;;;;;5008199;28;20046;-81
2023/12/29 06:03:05;;;;;;;22.30;3.78;;;9.10;99.90;;;;;;5009762;28;20057;-82
2023/12/29 06:05:31;;;;;;;17.00;3.30;;;9.00;99.90;;;;;;5010319;28;20088;-82
2023/12/29 06:07:57;;;;;;;13.75;3.05;;;9.10;99.90;;;;;;5010820;28;20064;-82
2023/12/29 06:10:23;;;;;;;22.45;3.47;;;9.40;99.90;;;;;;5006012;28;20505;-83
2023/12/29 06:12:49;;;;;;;21.77;3.40;;;9.10;99.90;;;;;;5007313;28;20541;-82
2023/12/29 06:15:15;;;;;;;21.30;2.95;;;9.20;99.90;;;;;;5004040;28;20057;-83
2023/12/29 06:17:41;;;;;;;24.50;3.40;;;9.10;99.90;;;;;;5001082;28;20050;-82
2023/12/29 06:20:10;;;;;;;22.73;3.72;;;9.10;99.90;;;;;;5008354;28;20497;-80
2023/12/29 06:22:40;;;;;;;19.20;3.03;;;9.10;99.90;;;;;;5008367;28;20077;-81
2023/12/29 06:25:11;;;;;;;17.45;3.47;;;9.20;99.90;;;;;;5005509;28;20057;-83
2023/12/29 06:27:40;;;;;;;13.63;2.28;;;9.10;99.90;;;;;;5010704;28;20049;-81
2023/12/29 06:30:07;;;;;;;15.85;2.67;;;9.20;99.90;;;;;;4982016;28;20081;-80
2023/12/29 06:32:33;;;;;;;19.10;2.72;;;9.10;99.90;;;;;;5008454;28;20494;-81
2023/12/29 06:34:59;;;;;;;18.83;4.20;;;9.10;99.90;;;;;;5002062;28;20081;-82
2023/12/29 06:37:25;;;;;;;20.63;3.20;;;9.20;99.90;;;;;;5004422;28;20081;-83
2023/12/29 06:39:51;;;;;;;24.25;3.20;;;9.10;99.90;;;;;;5010613;28;20050;-82
2023/12/29 06:42:16;;;;;;;30.52;3.22;;;9.10;99.90;;;;;;4979418;28;20046;-83
2023/12/29 06:44:42;;;;;;;21.48;3.45;;;9.00;99.90;;;;;;5010475;28;20034;-89
2023/12/29 06:47:08;;;;;;;16.63;2.83;;;9.00;99.90;;;;;;5014365;28;20068;-82
2023/12/29 06:49:36;;;;;;;24.05;3.65;;;9.00;99.90;;;;;;5017561;28;20726;-82
2023/12/29 06:52:02;;;;;;;21.30;3.40;;;8.90;99.90;;;;;;5012494;28;20379;-83
2023/12/29 06:54:28;;;;;;;29.38;4.20;;;8.90;99.90;;;;;;5011761;28;20048;-81
2023/12/29 06:56:53;;;;;;;17.63;3.38;;;9.10;99.90;;;;;;5013569;28;20093;-83
2023/12/29 06:59:20;;;;;;;23.33;3.67;;;8.90;99.90;;;;;;5007281;28;20049;-82
2023/12/29 07:01:46;;;;;;;20.60;3.22;;;8.90;99.90;;;;;;5007954;28;20054;-82
2023/12/29 07:04:13;;;;;;;20.75;3.13;;;8.90;99.90;;;;;;5012979;28;20088;-82
2023/12/29 07:06:39;;;;;;;22.95;3.97;;;8.90;99.90;;;;;;5012380;28;20041;-81
2023/12/29 07:09:05;;;;;;;22.33;3.25;;;8.90;99.90;;;;;;5016000;28;20544;-82
2023/12/29 07:11:31;;;;;;;27.40;4.13;;;8.90;99.90;;;;;;5014962;28;20042;-82
2023/12/29 07:13:56;;;;;;;29.55;3.88;;;8.90;99.90;;;;;;5013346;28;20046;-81
2023/12/29 07:16:22;;;;;;;26.20;3.97;;;8.90;99.90;;;;;;4999647;28;20042;-81
2023/12/29 07:18:48;;;;;;;22.63;3.05;;;8.90;99.90;;;;;;5014116;28;20045;-80
2023/12/29 07:21:16;;;;;;;17.70;3.78;;;8.90;99.90;;;;;;5013086;28;20063;-83
2023/12/29 07:23:42;;;;;;;28.60;4.15;;;9.20;99.90;;;;;;5002669;28;20050;-78
2023/12/29 07:26:08;;;;;;;22.52;3.20;;;8.90;99.90;;;;;;5013900;28;20057;-78
2023/12/29 07:28:33;;;;;;;27.10;3.95;;;8.80;99.90;;;;;;5014609;28;20050;-78
2023/12/29 07:31:00;;;;;;;23.85;4.38;;;8.80;99.90;;;;;;5015381;28;20409;-78
2023/12/29 07:33:25;;;;;;;29.90;4.38;;;9.00;99.90;;;;;;5014951;28;20050;-78
2023/12/29 07:35:51;;;;;;;21.73;4.03;;;8.80;99.90;;;;;;5014408;28;20441;-77
2023/12/29 07:38:17;;;;;;;26.63;3.28;;;8.80;99.90;;;;;;5014694;28;20053;-77
2023/12/29 07:40:43;;;;;;;22.10;3.20;;;8.70;99.90;;;;;;5012520;28;20394;-80
2023/12/29 07:43:08;;;;;;;20.73;3.63;;;8.70;99.90;;;;;;5014083;28;20049;-78
2023/12/29 07:45:34;;;;;;;23.65;3.72;;;8.70;99.90;;;;;;5015143;28;20081;-78
2023/12/29 07:48:02;;;;;;;19.25;3.50;;;8.70;99.90;;;;;;5003502;28;20046;-84
2023/12/29 07:50:28;;;;;;;24.48;3.72;;;8.60;99.90;;;;;;5007477;28;20046;-77
2023/12/29 07:52:53;;;;;;;21.75;3.88;;;8.60;99.90;;;;;;4990817;28;20128;-80
2023/12/29 07:55:19;;;;;;;30.38;5.53;;;8.70;99.90;;;;;;5015410;28;20050;-79
2023/12/29 07:57:46;;;;;;;26.52;3.78;;;8.70;99.90;;;;;;5013252;28;20787;-80
2023/12/29 08:00:14;;;;;;;30.75;5.10;;;8.70;99.90;;;;;;5013789;28;20053;-79
2023/12/29 08:02:40;;;;;;;19.70;3.67;;;8.70;99.90;;;;;;5014710;28;20042;-79
2023/12/29 08:05:08;;;;;;;21.75;4.15;;;9.00;99.90;;;;;;5015057;28;20047;-78
2023/12/29 08:07:39;;;;;;;26.33;3.58;;;8.80;99.90;;;;;;4994632;28;20499;-79
2023/12/29 08:10:06;;;;;;;26.17;4.50;;;9.00;99.90;;;;;;5014296;28;20053;-80
2023/12/29 08:12:33;;;;;;;17.45;3.88;;;8.90;99.90;;;;;;5010355;28;20080;-78
2023/12/29 08:14:59;;;;;;;24.20;3.90;;;8.90;99.90;;;;;;4999152;28;20057;-79
2023/12/29 08:17:26;;;;;;;28.77;4.93;;;9.00;99.90;;;;;;5012301;28;20475;-77
2023/12/29 08:19:51;;;;;;;29.38;4.90;;;8.90;99.90;;;;;;5012996;28;20437;-79
2023/12/29 08:22:17;;;;;;;23.58;3.70;;;9.10;99.90;;;;;;5013392;28;20045;-77
2023/12/29 08:24:45;;;;;;;22.85;3.40;;;9.00;99.90;;;;;;5012840;28;20056;-78
2023/12/29 08:27:14;;;;;;;22.15;3.67;;;9.00;99.90;;;;;;5012825;28;20673;-77
2023/12/29 08:29:40;;;;;;;35.97;4.50;;;9.10;99.90;;;;;;5012657;28;20050;-78
2023/12/29 08:32:07;;;;;;;20.52;3.47;;;9.10;99.90;;;;;;5003088;28;20046;-79
2023/12/29 08:34:37;;;;;;;21.25;3.63;;;9.10;99.90;;;;;;4993275;28;20053;-78
2023/12/29 08:37:03;;;;;;;27.52;3.83;;;9.10;99.90;;;;;;4993527;28;20046;-80
2023/12/29 08:39:29;;;;;;;20.60;3.20;;;9.20;99.90;;;;;;4993570;28;20240;-80
2023/12/29 08:41:56;;;;;;;24.42;3.60;;;9.10;99.90;;;;;;5001703;28;20374;-83
2023/12/29 08:44:22;;;;;;;32.42;4.13;;;9.20;99.90;;;;;;4997072;28;20056;-79
2023/12/29 08:46:48;;;;;;;27.45;4.28;;;9.10;99.90;;;;;;5009449;28;20402;-80
2023/12/29 08:49:13;;;;;;;22.48;4.97;;;9.10;99.90;;;;;;5012800;28;20038;-79
2023/12/29 08:51:39;;;;;;;28.70;4.97;;;9.10;99.90;;;;;;5011691;28;20486;-80
2023/12/29 08:54:05;;;;;;;22.20;3.10;;;9.10;99.90;;;;;;5004560;28;20041;-80
2023/12/29 08:56:30;;;;;;;25.55;3.90;;;9.10;99.90;;;;;;5012721;28;20049;-80
2023/12/29 08:58:56;;;;;;;18.15;3.17;;;9.10;99.90;;;;;;5012151;28;20429;-79
2023/12/29 09:01:21;;;;;;;22.02;3.80;;;9.00;99.90;;;;;;4992959;28;20415;-80
2023/12/29 09:03:47;;;;;;;23.27;3.70;;;9.50;99.90;;;;;;5011392;28;20049;-80
2023/12/29 09:06:13;;;;;;;29.77;5.22;;;9.10;99.90;;;;;;4995981;28;20054;-79
2023/12/29 09:08:39;;;;;;;20.65;3.97;;;9.00;99.90;;;;;;5011976;28;20139;-79
2023/12/29 09:11:05;;;;;;;20.70;3.60;;;9.00;99.90;;;;;;5012457;28;20057;-79
2023/12/29 09:13:31;;;;;;;17.48;3.33;;;9.00;99.90;;;;;;5012079;28;20441;-78
2023/12/29 09:15:58;;;;;;;18.73;4.65;;;9.00;99.90;;;;;;5012489;28;20049;-78
2023/12/29 09:18:23;;;;;;;27.67;4.13;;;9.00;99.90;;;;;;5011947;28;20444;-79
2023/12/29 09:20:49;;;;;;;26.65;3.30;;;9.00;99.90;;;;;;5013366;28;20046;-78
2023/12/29 09:23:15;;;;;;;28.85;3.67;;;9.10;99.90;;;;;;5012600;28;20087;-78
2023/12/29 09:25:41;;;;;;;35.30;5.05;;;9.10;99.90;;;;;;4996250;28;20048;-77
2023/12/29 09:28:07;;;;;;;25.05;4.28;;;9.10;99.90;;;;;;5012366;28;20445;-79
2023/12/29 09:30:32;;;;;;;18.42;3.95;;;9.20;99.90;;;;;;5009080;28;20053;-79
2023/12/29 09:32:58;;;;;;;23.98;4.05;;;9.20;99.90;;;;;;5010703;28;20065;-82
2023/12/29 09:35:26;;;;;;;25.75;3.15;;;9.20;99.90;;;;;;5011328;28;20058;-82
2023/12/29 09:37:51;;;;;;;23.08;3.30;;;9.30;99.90;;;;;;5007453;28;20046;-82
2023/12/29 09:40:17;;;;;;;23.45;4.40;;;9.20;99.90;;;;;;4991364;28;20050;-81
2023/12/29 09:42:44;;;;;;;24.88;4.18;;;9.20;99.90;;;;;;5000732;28;20119;-80
2023/12/29 09:45:12;;;;;;;21.38;2.97;;;9.20;99.90;;;;;;5006727;28;20050;-80
2023/12/29 09:47:40;;;;;;;25.42;4.30;;;9.20;99.90;;;;;;4991913;28;20122;-79
2023/12/29 09:50:09;;;;;;;26.75;4.07;;;9.20;99.90;;;;;;5005908;28;20054;-79
2023/12/29 09:52:37;;;;;;;20.95;3.30;;;9.20;99.90;;;;;;5010253;28;20816;-80
2023/12/29 09:55:04;;;;;;;21.88;3.63;;;9.30;99.90;;;;;;5010857;28;20121;-79
2023/12/29 09:57:30;;;;;;;17.08;3.30;;;9.20;99.90;;;;;;5010664;28;20046;-79
2023/12/29 09:59:57;;;;;;;18.52;4.00;;;9.20;99.90;;;;;;5011065;28;20132;-79
2023/12/29 10:02:23;;;;;;;25.92;3.58;;;9.20;99.90;;;;;;5011662;28;20045;-79
2023/12/29 10:04:48;;;;;;;31.23;4.22;;;9.20;99.90;;;;;;5011074;28;20056;-79
2023/12/29 10:07:38;;;;;;;22.67;3.70;;;9.20;99.90;;;;;;5011335;28;20056;-80
2023/12/29 10:10:04;;;;;;;25.15;3.40;;;9.20;99.90;;;;;;5007948;28;20045;-79
2023/12/29 10:12:31;;;;;;;19.52;4.18;;;9.20;99.90;;;;;;5005866;28;20129;-79
2023/12/29 10:15:10;;;;;;;18.13;3.28;;;9.30;99.90;;;;;;4991788;28;20042;-79
2023/12/29 10:17:52;;;;;;;23.15;3.17;;;9.30;99.90;;;;;;5010276;28;20112;-79
2023/12/29 10:20:45;;;;;;;21.05;3.53;;;9.30;99.90;;;;;;5002269;28;20077;-79
2023/12/29 10:23:13;;;;;;;19.55;3.65;;;9.30;99.90;;;;;;5006960;28;20062;-79
2023/12/29 10:25:39;;;;;;;17.90;2.97;;;9.30;99.90;;;;;;5000807;28;20057;-78
2023/12/29 10:28:06;;;;;;;22.13;3.92;;;9.40;99.90;;;;;;5028652;28;20130;-78
2023/12/29 10:30:32;;;;;;;23.42;3.50;;;9.30;99.90;;;;;;5030578;28;20053;-78
2023/12/29 10:33:00;;;;;;;18.85;2.92;;;9.30;99.90;;;;;;5017571;28;20054;-78
2023/12/29 10:35:26;;;;;;;19.42;3.47;;;9.30;99.90;;;;;;5002403;28;20599;-78
2023/12/29 10:37:52;;;;;;;17.63;3.80;;;9.30;99.90;;;;;;4982012;28;20042;-78
2023/12/29 10:40:18;;;;;;;21.15;3.53;;;9.40;99.90;;;;;;5011076;28;20042;-78
2023/12/29 10:42:55;;;;;;;18.90;3.30;;;9.40;99.90;;;;;;5011509;28;20057;-79
2023/12/29 10:45:22;;;;;;;17.25;2.58;;;9.40;99.90;;;;;;5011083;28;20038;-78
2023/12/29 10:47:48;;;;;;;23.75;3.58;;;9.40;99.90;;;;;;5006447;28;20077;-78
2023/12/29 10:50:15;;;;;;;14.40;2.45;;;9.40;99.90;;;;;;4999427;28;20054;-80
2023/12/29 10:52:42;;;;;;;21.55;3.03;;;9.40;99.90;;;;;;5009648;28;20393;-77
2023/12/29 10:55:08;;;;;;;15.20;2.80;;;9.40;99.90;;;;;;5010961;28;20514;-77
2023/12/29 10:57:35;;;;;;;17.10;2.33;;;9.30;99.90;;;;;;5012105;28;20072;-77
2023/12/29 11:00:01;;;;;;;23.55;3.03;;;9.30;99.90;;;;;;5004155;28;20119;-80
2023/12/29 11:02:28;;;;;;;17.20;2.78;;;9.20;99.90;;;;;;5018437;28;20493;-79
2023/12/29 11:05:10;;;;;;;14.57;2.72;;;9.20;99.90;;;;;;5023263;28;20054;-80
2023/12/29 11:07:41;;;;;;;14.77;2.42;;;9.20;99.90;;;;;;5011494;28;20107;-80
2023/12/29 11:10:08;;;;;;;15.98;3.08;;;9.80;99.90;;;;;;5011289;28;20110;-79
2023/12/29 11:12:35;;;;;;;17.80;2.45;;;9.10;99.90;;;;;;5004681;28;20046;-79
2023/12/29 11:15:06;;;;;;;18.75;2.03;;;9.00;99.90;;;;;;4995880;28;20030;-79
2023/12/29 11:17:34;;;;;;;18.05;3.22;;;9.00;99.90;;;;;;4992863;28;20042;-80
2023/12/29 11:20:03;;;;;;;23.00;3.72;;;9.00;99.90;;;;;;4992636;28;20046;-81
2023/12/29 11:22:32;;;;;;;19.50;2.85;;;9.00;99.90;;;;;;4991802;28;20038;-80
2023/12/29 11:24:59;;;;;;;13.00;3.08;;;9.00;99.90;;;;;;5001218;28;20053;-79
2023/12/29 11:27:32;;;;;;;19.55;2.65;;;9.10;99.90;;;;;;4994530;28;20072;-79
2023/12/29 11:29:59;;;;;;;18.90;2.60;;;9.30;99.90;;;;;;4994791;28;20046;-79
2023/12/29 11:32:43;;;;;;;16.92;3.20;;;9.20;99.90;;;;;;4993385;28;20050;-80
2023/12/29 11:35:19;;;;;;;19.77;2.67;;;9.30;99.90;;;;;;5003094;28;20061;-80
2023/12/29 11:38:16;;;;;;;16.35;2.30;;;9.40;99.90;;;;;;5013132;28;20049;-79
2023/12/29 11:40:53;;;;;;;13.60;3.20;;;9.40;99.90;;;;;;4994508;28;20046;-80
2023/12/29 11:43:19;;;;;;;13.18;2.47;;;9.50;99.90;;;;;;5001892;28;20562;-80
2023/12/29 11:45:45;;;;;;;16.63;2.13;;;9.60;99.90;;;;;;5006650;28;20047;-80
2023/12/29 11:48:11;;;;;;;14.68;2.00;;;9.60;99.90;;;;;;5003072;28;20129;-79
2023/12/29 11:50:42;;;;;;;12.00;2.03;;;9.60;99.90;;;;;;5013067;28;20640;-79
2023/12/29 11:53:11;;;;;;;9.80;1.70;;;9.60;99.90;;;;;;4997834;28;20046;-79
2023/12/29 11:55:38;;;;;;;11.10;1.60;;;9.60;99.90;;;;;;5001128;28;20042;-81
2023/12/29 11:58:26;;;;;;;10.68;1.48;;;9.60;99.90;;;;;;4999129;28;20050;-80
2023/12/29 12:00:51;;;;;;;15.95;1.90;;;9.50;99.90;;;;;;5015031;28;20049;-80
2023/12/29 12:03:25;;;;;;;13.73;1.45;;;9.50;99.90;;;;;;5014745;28;20039;-79
2023/12/29 12:05:52;;;;;;;15.57;1.90;;;9.40;99.90;;;;;;5021373;28;20092;-80
2023/12/29 12:08:35;;;;;;;13.43;2.20;;;9.40;99.90;;;;;;5013717;28;20289;-79
2023/12/29 12:11:29;;;;;;;11.77;1.92;;;9.40;99.90;;;;;;5014180;28;20042;-80
2023/12/29 12:13:55;;;;;;;12.18;1.85;;;9.40;99.90;;;;;;5010678;28;20140;-78
2023/12/29 12:16:46;;;;;;;14.13;2.05;;;9.40;99.90;;;;;;5010770;28;20038;-77
2023/12/29 12:19:12;;;;;;;14.65;2.90;;;9.40;99.90;;;;;;5012899;28;20050;-77
2023/12/29 12:21:38;;;;;;;10.15;2.00;;;9.30;99.90;;;;;;5011971;28;20046;-78
2023/12/29 12:24:05;;;;;;;12.80;1.95;;;9.30;99.90;;;;;;5012777;28;20080;-78
2023/12/29 12:26:31;;;;;;;12.75;2.20;;;9.40;99.90;;;;;;5008826;28;20534;-78
2023/12/29 12:28:57;;;;;;;12.93;3.08;;;9.50;99.90;;;;;;4994288;28;20438;-78
2023/12/29 12:31:23;;;;;;;12.13;2.25;;;9.30;99.90;;;;;;4994620;28;20054;-78
2023/12/29 12:34:00;;;;;;;13.65;3.65;;;9.30;99.90;;;;;;4994293;28;20050;-79
2023/12/29 12:36:26;;;;;;;12.50;2.63;;;9.30;99.90;;;;;;5000658;28;20061;-78
2023/12/29 12:38:56;;;;;;;14.13;2.33;;;9.20;99.90;;;;;;5011976;28;20092;-78
2023/12/29 12:41:26;;;;;;;15.10;2.70;;;9.20;99.90;;;;;;5013787;28;20046;-78
2023/12/29 12:44:13;;;;;;;17.48;2.50;;;9.10;99.90;;;;;;5006473;28;20073;-78
2023/12/29 12:47:01;;;;;;;14.00;2.38;;;9.10;99.90;;;;;;4994445;28;20092;-80
2023/12/29 12:49:29;;;;;;;18.20;3.45;;;9.10;99.90;;;;;;4993146;28;20585;-78